San Ramon, CA

6:22 PM PDT on September 30, 2014 (GMT -0700)
Bollinger Hills | Change Station
CLOSE
Current Station
Personal Weather Station
Location: San Ramon, CA
Elevation: 535 ft
Nearby Weather Stations

Elev 535 ft 37.75 °N, 121.96 °W | Updated 40 seconds ago

Clear
Clear
75.9 °F
Feels Like 77 °F
N
0.0
Wind Variable Wind from North
Gusts 6.7 mph

Today
High -- | Low -- °F
--% Chance of Precip.
Yesterday
High -- | Low -- °F
Precip. -- in
7:02 AM 6:52 PM
Waxing Crescent, 42% visible
Pressure 29.82 in
Visibility 10.0 miles
Clouds Clear
Heat Index 77 °F
Dew Point 43 °F
Humidity 31%
Rainfall 0.00 in
Snow Depth 0 in , 0 in , 0 in
UV 1 out of 12
Pollen 2.80 out of 12
PM2.5 Good
Flu Activity Not available.
METAR KLVK 010053Z 28007KT 10SM CLR 26/13 A2983 RMK AO2 SLP097 T02560128

More Conditions Fewer Conditions

Pressure 29.82 in
Visibility 10.0 miles
Clouds Clear
Heat Index 77 °F
Dew Point 43 °F
Humidity 31%
Rainfall 0.00 in
Snow Depth 0 in , 0 in , 0 in
UV 1 out of 12
Pollen 2.80 out of 12
PM2.5 Good
Flu Activity Not available.
METAR KLVK 010053Z 28007KT 10SM CLR 26/13 A2983 RMK AO2 SLP097 T02560128

More Conditions Fewer Conditions

10-Day Weather Forecast

Almanac

Astronomy

Sep. 30, 2014 Rise Set
Actual Time 7:02 AM PDT 6:52 PM PDT
Civil Twilight 6:36 AM PDT 7:18 PM PDT
Nautical Twilight 6:06 AM PDT 7:48 PM PDT
Astronomical Twilight 5:35 AM PDT 8:19 PM PDT
Moon 1:10 PM PDT (9/30) 11:32 PM PDT (9/30)
Length of Visible Light 12h 41m
Length of Day
11h 49m
Tomorrow will be 2m 24s shorter.
Waxing Crescent, 42% of the Moon is Illuminated
Today
Waxing Crescent
Oct 1
First Quarter
Oct 8
Full
Oct 15
Last Quarter
Oct 23
New

Today's Extremes

State Highs State Lows

Community

WunderPhotos

Upload Photos

1,757,815 photos uploaded!

Nearby

Air Quality

  Air Quality AQ Index Pollutant
Yesterday Good
PM2.5
Yesterday Good
OZONE
Current Good
PM2.5
Tuesday Good
OZONE
Wednesday Good
OZONE
Thursday Moderate
OZONE
Friday Moderate
OZONE
Saturday Moderate
OZONE
Sunday Moderate
OZONE

Snow Depth

Station Depth Elevation
Hagan's Meadow 0 in 8000 ft
Burnside Lake 0 in 8139 ft
Blue Lakes 0 in 8000 ft
Tahoe City Cross 0 in 6750 ft
Summit Meadow 0 in 9122 ft

Earthquake Activity

City Distance Mag. Time & Date
Shandon, California 162 miles 2.9 5:34 PM PDT
2014-09-30
East Foothills, California 21 miles 2.6 3:34 PM PDT
2014-09-30
South Dos Palos, California 99 miles 2.7 3:08 PM PDT
2014-09-30
South Dos Palos, California 98 miles 2.5 9:18 PM PDT
2014-09-29
Minimum magnitude displayed is 2.5.

Coastal Water Temperatures

Place Temperature
No Stations Reporting

Nearby Weather Stations